sensor_id;sensor_type;location;lat;lon;timestamp;P1;durP1;ratioP1;P2;durP2;ratioP2
5351;SDS011;2698;51.454;6.736;2023-04-03T00:01:36;10.60;;;8.97;;
5351;SDS011;2698;51.454;6.736;2023-04-03T00:04:03;19.67;;;10.23;;
5351;SDS011;2698;51.454;6.736;2023-04-03T00:06:30;25.10;;;9.70;;
5351;SDS011;2698;51.454;6.736;2023-04-03T00:08:57;14.47;;;9.77;;
5351;SDS011;2698;51.454;6.736;2023-04-03T00:11:25;11.20;;;8.70;;
5351;SDS011;2698;51.454;6.736;2023-04-03T00:13:53;14.10;;;9.10;;
5351;SDS011;2698;51.454;6.736;2023-04-03T00:16:20;15.77;;;10.60;;
5351;SDS011;2698;51.454;6.736;2023-04-03T00:18:48;12.13;;;8.77;;
5351;SDS011;2698;51.454;6.736;2023-04-03T00:21:15;13.27;;;8.87;;
5351;SDS011;2698;51.454;6.736;2023-04-03T00:23:42;22.07;;;9.83;;
5351;SDS011;2698;51.454;6.736;2023-04-03T00:26:09;13.40;;;9.10;;
5351;SDS011;2698;51.454;6.736;2023-04-03T00:28:36;19.10;;;9.30;;
5351;SDS011;2698;51.454;6.736;2023-04-03T00:31:04;15.60;;;9.70;;
5351;SDS011;2698;51.454;6.736;2023-04-03T00:33:31;13.70;;;8.67;;
5351;SDS011;2698;51.454;6.736;2023-04-03T00:35:59;13.63;;;9.17;;
5351;SDS011;2698;51.454;6.736;2023-04-03T00:38:26;13.30;;;9.10;;
5351;SDS011;2698;51.454;6.736;2023-04-03T00:40:53;16.10;;;9.10;;
5351;SDS011;2698;51.454;6.736;2023-04-03T00:43:20;14.60;;;9.03;;
5351;SDS011;2698;51.454;6.736;2023-04-03T00:45:48;10.67;;;8.83;;
5351;SDS011;2698;51.454;6.736;2023-04-03T00:48:18;16.00;;;10.30;;
5351;SDS011;2698;51.454;6.736;2023-04-03T00:50:47;13.80;;;7.73;;
5351;SDS011;2698;51.454;6.736;2023-04-03T00:53:16;15.60;;;9.10;;
5351;SDS011;2698;51.454;6.736;2023-04-03T00:55:45;15.00;;;8.73;;
5351;SDS011;2698;51.454;6.736;2023-04-03T00:58:13;20.50;;;10.73;;
5351;SDS011;2698;51.454;6.736;2023-04-03T01:00:42;19.03;;;9.47;;
5351;SDS011;2698;51.454;6.736;2023-04-03T01:03:10;9.33;;;8.20;;
5351;SDS011;2698;51.454;6.736;2023-04-03T01:05:38;13.57;;;8.60;;
5351;SDS011;2698;51.454;6.736;2023-04-03T01:08:06;19.23;;;9.80;;
5351;SDS011;2698;51.454;6.736;2023-04-03T01:10:33;17.70;;;8.90;;
5351;SDS011;2698;51.454;6.736;2023-04-03T01:13:00;22.43;;;8.90;;
5351;SDS011;2698;51.454;6.736;2023-04-03T01:15:27;15.47;;;9.20;;
5351;SDS011;2698;51.454;6.736;2023-04-03T01:17:58;10.10;;;6.90;;
5351;SDS011;2698;51.454;6.736;2023-04-03T01:20:36;12.73;;;7.60;;
5351;SDS011;2698;51.454;6.736;2023-04-03T01:23:12;9.10;;;6.83;;
5351;SDS011;2698;51.454;6.736;2023-04-03T01:25:43;9.30;;;6.87;;
5351;SDS011;2698;51.454;6.736;2023-04-03T01:28:11;10.13;;;6.60;;
5351;SDS011;2698;51.454;6.736;2023-04-03T01:30:39;24.43;;;7.57;;
5351;SDS011;2698;51.454;6.736;2023-04-03T01:33:09;10.03;;;7.20;;
5351;SDS011;2698;51.454;6.736;2023-04-03T01:35:37;6.67;;;5.93;;
5351;SDS011;2698;51.454;6.736;2023-04-03T01:38:04;7.43;;;6.57;;
5351;SDS011;2698;51.454;6.736;2023-04-03T01:40:32;8.73;;;6.80;;
5351;SDS011;2698;51.454;6.736;2023-04-03T01:42:59;9.57;;;6.80;;
5351;SDS011;2698;51.454;6.736;2023-04-03T01:45:26;10.80;;;6.37;;
5351;SDS011;2698;51.454;6.736;2023-04-03T01:47:53;10.87;;;6.70;;
5351;SDS011;2698;51.454;6.736;2023-04-03T01:50:22;10.87;;;6.33;;
5351;SDS011;2698;51.454;6.736;2023-04-03T01:52:49;12.83;;;5.97;;
5351;SDS011;2698;51.454;6.736;2023-04-03T01:55:16;9.67;;;6.30;;
5351;SDS011;2698;51.454;6.736;2023-04-03T01:57:43;9.70;;;6.17;;
5351;SDS011;2698;51.454;6.736;2023-04-03T02:00:11;13.00;;;5.80;;
5351;SDS011;2698;51.454;6.736;2023-04-03T02:02:38;20.17;;;7.73;;
5351;SDS011;2698;51.454;6.736;2023-04-03T02:05:06;12.43;;;5.73;;
5351;SDS011;2698;51.454;6.736;2023-04-03T02:07:34;17.10;;;7.97;;
5351;SDS011;2698;51.454;6.736;2023-04-03T02:10:02;30.90;;;7.67;;
5351;SDS011;2698;51.454;6.736;2023-04-03T02:12:29;16.20;;;6.73;;
5351;SDS011;2698;51.454;6.736;2023-04-03T02:14:56;13.80;;;5.70;;
5351;SDS011;2698;51.454;6.736;2023-04-03T02:17:23;14.40;;;6.00;;
5351;SDS011;2698;51.454;6.736;2023-04-03T02:19:50;11.27;;;5.80;;
5351;SDS011;2698;51.454;6.736;2023-04-03T02:22:17;12.17;;;5.70;;
5351;SDS011;2698;51.454;6.736;2023-04-03T02:24:46;28.30;;;5.33;;
5351;SDS011;2698;51.454;6.736;2023-04-03T02:27:13;11.27;;;5.33;;
5351;SDS011;2698;51.454;6.736;2023-04-03T02:29:40;4.93;;;4.43;;
5351;SDS011;2698;51.454;6.736;2023-04-03T02:32:07;22.73;;;6.00;;
5351;SDS011;2698;51.454;6.736;2023-04-03T02:34:35;16.40;;;5.00;;
5351;SDS011;2698;51.454;6.736;2023-04-03T02:37:02;15.97;;;5.20;;
5351;SDS011;2698;51.454;6.736;2023-04-03T02:39:29;13.13;;;4.60;;
5351;SDS011;2698;51.454;6.736;2023-04-03T02:41:57;11.53;;;5.33;;
5351;SDS011;2698;51.454;6.736;2023-04-03T02:44:24;12.37;;;5.80;;
5351;SDS011;2698;51.454;6.736;2023-04-03T02:46:52;8.00;;;4.70;;
5351;SDS011;2698;51.454;6.736;2023-04-03T02:49:19;13.83;;;5.40;;
5351;SDS011;2698;51.454;6.736;2023-04-03T02:51:46;17.33;;;4.83;;
5351;SDS011;2698;51.454;6.736;2023-04-03T02:54:13;11.43;;;4.30;;
5351;SDS011;2698;51.454;6.736;2023-04-03T02:56:40;7.63;;;3.67;;
5351;SDS011;2698;51.454;6.736;2023-04-03T02:59:09;6.43;;;3.60;;
5351;SDS011;2698;51.454;6.736;2023-04-03T03:01:36;11.40;;;3.90;;
5351;SDS011;2698;51.454;6.736;2023-04-03T03:04:03;11.50;;;4.07;;
5351;SDS011;2698;51.454;6.736;2023-04-03T03:06:30;5.70;;;3.63;;
5351;SDS011;2698;51.454;6.736;2023-04-03T03:08:57;10.70;;;4.13;;
5351;SDS011;2698;51.454;6.736;2023-04-03T03:11:24;4.37;;;2.83;;
5351;SDS011;2698;51.454;6.736;2023-04-03T03:13:51;9.60;;;3.73;;
5351;SDS011;2698;51.454;6.736;2023-04-03T03:16:20;8.87;;;3.67;;
5351;SDS011;2698;51.454;6.736;2023-04-03T03:18:47;6.97;;;3.30;;
5351;SDS011;2698;51.454;6.736;2023-04-03T03:21:14;12.70;;;4.37;;
5351;SDS011;2698;51.454;6.736;2023-04-03T03:23:41;16.97;;;4.10;;
5351;SDS011;2698;51.454;6.736;2023-04-03T03:26:08;20.83;;;4.40;;
5351;SDS011;2698;51.454;6.736;2023-04-03T03:28:36;47.80;;;4.27;;
5351;SDS011;2698;51.454;6.736;2023-04-03T03:31:04;16.50;;;4.10;;
5351;SDS011;2698;51.454;6.736;2023-04-03T03:33:32;13.43;;;3.33;;
5351;SDS011;2698;51.454;6.736;2023-04-03T03:36:00;6.03;;;3.13;;
5351;SDS011;2698;51.454;6.736;2023-04-03T03:38:27;9.13;;;3.13;;
5351;SDS011;2698;51.454;6.736;2023-04-03T03:40:54;15.03;;;3.30;;
5351;SDS011;2698;51.454;6.736;2023-04-03T03:43:21;12.00;;;3.77;;
5351;SDS011;2698;51.454;6.736;2023-04-03T03:45:49;7.20;;;3.43;;
5351;SDS011;2698;51.454;6.736;2023-04-03T03:48:17;7.23;;;3.47;;
5351;SDS011;2698;51.454;6.736;2023-04-03T03:50:46;5.77;;;2.70;;
5351;SDS011;2698;51.454;6.736;2023-04-03T03:53:13;14.13;;;3.23;;
5351;SDS011;2698;51.454;6.736;2023-04-03T03:55:40;6.37;;;2.97;;
5351;SDS011;2698;51.454;6.736;2023-04-03T03:58:07;3.70;;;2.40;;
5351;SDS011;2698;51.454;6.736;2023-04-03T04:00:34;6.60;;;3.30;;
5351;SDS011;2698;51.454;6.736;2023-04-03T04:03:01;11.13;;;3.57;;
5351;SDS011;2698;51.454;6.736;2023-04-03T04:05:28;7.90;;;3.30;;
5351;SDS011;2698;51.454;6.736;2023-04-03T04:07:57;10.37;;;3.10;;
5351;SDS011;2698;51.454;6.736;2023-04-03T04:10:24;13.37;;;3.67;;
5351;SDS011;2698;51.454;6.736;2023-04-03T04:12:51;8.40;;;3.07;;
5351;SDS011;2698;51.454;6.736;2023-04-03T04:15:18;6.00;;;2.97;;
5351;SDS011;2698;51.454;6.736;2023-04-03T04:17:46;5.10;;;3.00;;
5351;SDS011;2698;51.454;6.736;2023-04-03T04:20:14;10.80;;;3.13;;
5351;SDS011;2698;51.454;6.736;2023-04-03T04:22:41;7.13;;;3.23;;
5351;SDS011;2698;51.454;6.736;2023-04-03T04:25:09;7.40;;;2.70;;
5351;SDS011;2698;51.454;6.736;2023-04-03T04:27:37;10.80;;;3.07;;
5351;SDS011;2698;51.454;6.736;2023-04-03T04:30:04;11.17;;;3.60;;
5351;SDS011;2698;51.454;6.736;2023-04-03T04:32:32;6.30;;;3.10;;
5351;SDS011;2698;51.454;6.736;2023-04-03T04:34:59;6.27;;;3.03;;
5351;SDS011;2698;51.454;6.736;2023-04-03T04:37:26;9.53;;;3.83;;
5351;SDS011;2698;51.454;6.736;2023-04-03T04:39:53;4.40;;;2.40;;
5351;SDS011;2698;51.454;6.736;2023-04-03T04:42:22;3.77;;;2.90;;
5351;SDS011;2698;51.454;6.736;2023-04-03T04:44:49;9.97;;;3.70;;
5351;SDS011;2698;51.454;6.736;2023-04-03T04:47:16;10.17;;;3.43;;
5351;SDS011;2698;51.454;6.736;2023-04-03T04:49:43;13.20;;;3.40;;
5351;SDS011;2698;51.454;6.736;2023-04-03T04:52:12;28.83;;;3.50;;
5351;SDS011;2698;51.454;6.736;2023-04-03T04:54:39;9.77;;;3.40;;
5351;SDS011;2698;51.454;6.736;2023-04-03T04:57:06;8.70;;;4.00;;
5351;SDS011;2698;51.454;6.736;2023-04-03T04:59:35;14.70;;;4.50;;
5351;SDS011;2698;51.454;6.736;2023-04-03T05:02:02;8.27;;;3.47;;
5351;SDS011;2698;51.454;6.736;2023-04-03T05:04:29;15.00;;;4.17;;
5351;SDS011;2698;51.454;6.736;2023-04-03T05:06:56;8.10;;;3.43;;
5351;SDS011;2698;51.454;6.736;2023-04-03T05:09:24;4.97;;;2.67;;
5351;SDS011;2698;51.454;6.736;2023-04-03T05:11:51;10.27;;;3.40;;
5351;SDS011;2698;51.454;6.736;2023-04-03T05:14:18;13.13;;;3.57;;
5351;SDS011;2698;51.454;6.736;2023-04-03T05:16:47;7.70;;;3.70;;
5351;SDS011;2698;51.454;6.736;2023-04-03T05:19:17;11.37;;;3.43;;
5351;SDS011;2698;51.454;6.736;2023-04-03T05:21:44;10.80;;;3.03;;
5351;SDS011;2698;51.454;6.736;2023-04-03T05:24:11;13.43;;;4.43;;
5351;SDS011;2698;51.454;6.736;2023-04-03T05:26:39;19.33;;;3.93;;
5351;SDS011;2698;51.454;6.736;2023-04-03T05:29:06;13.83;;;3.40;;
5351;SDS011;2698;51.454;6.736;2023-04-03T05:31:33;14.30;;;3.77;;
5351;SDS011;2698;51.454;6.736;2023-04-03T05:34:01;12.70;;;3.93;;
5351;SDS011;2698;51.454;6.736;2023-04-03T05:36:29;13.50;;;4.43;;
5351;SDS011;2698;51.454;6.736;2023-04-03T05:38:56;8.63;;;3.23;;
5351;SDS011;2698;51.454;6.736;2023-04-03T05:41:23;18.30;;;4.40;;
5351;SDS011;2698;51.454;6.736;2023-04-03T05:43:50;20.10;;;4.73;;
5351;SDS011;2698;51.454;6.736;2023-04-03T05:46:18;7.80;;;2.97;;
5351;SDS011;2698;51.454;6.736;2023-04-03T05:48:46;9.37;;;3.27;;
5351;SDS011;2698;51.454;6.736;2023-04-03T05:51:15;7.87;;;3.20;;
5351;SDS011;2698;51.454;6.736;2023-04-03T05:53:42;9.70;;;3.30;;
5351;SDS011;2698;51.454;6.736;2023-04-03T05:56:10;6.63;;;3.30;;
5351;SDS011;2698;51.454;6.736;2023-04-03T05:58:37;14.40;;;4.30;;
5351;SDS011;2698;51.454;6.736;2023-04-03T06:01:05;9.60;;;3.40;;
5351;SDS011;2698;51.454;6.736;2023-04-03T06:03:32;12.30;;;4.20;;
5351;SDS011;2698;51.454;6.736;2023-04-03T06:06:01;4.73;;;3.27;;
5351;SDS011;2698;51.454;6.736;2023-04-03T06:08:30;18.87;;;4.10;;
5351;SDS011;2698;51.454;6.736;2023-04-03T06:10:57;10.27;;;3.40;;
5351;SDS011;2698;51.454;6.736;2023-04-03T06:13:25;6.63;;;3.60;;
5351;SDS011;2698;51.454;6.736;2023-04-03T06:15:52;15.17;;;3.70;;
5351;SDS011;2698;51.454;6.736;2023-04-03T06:18:19;8.63;;;3.30;;
5351;SDS011;2698;51.454;6.736;2023-04-03T06:20:46;10.27;;;3.87;;
5351;SDS011;2698;51.454;6.736;2023-04-03T06:23:13;4.83;;;2.30;;
5351;SDS011;2698;51.454;6.736;2023-04-03T06:25:41;17.20;;;2.67;;
5351;SDS011;2698;51.454;6.736;2023-04-03T06:28:08;4.67;;;2.93;;
5351;SDS011;2698;51.454;6.736;2023-04-03T06:30:36;10.50;;;3.43;;
5351;SDS011;2698;51.454;6.736;2023-04-03T06:33:03;4.17;;;2.40;;
5351;SDS011;2698;51.454;6.736;2023-04-03T06:35:30;14.73;;;2.50;;
5351;SDS011;2698;51.454;6.736;2023-04-03T06:37:59;8.73;;;3.10;;
5351;SDS011;2698;51.454;6.736;2023-04-03T06:40:29;9.50;;;4.43;;
5351;SDS011;2698;51.454;6.736;2023-04-03T06:42:57;6.67;;;3.20;;
5351;SDS011;2698;51.454;6.736;2023-04-03T06:45:24;6.27;;;2.73;;
5351;SDS011;2698;51.454;6.736;2023-04-03T06:47:52;12.50;;;4.33;;
5351;SDS011;2698;51.454;6.736;2023-04-03T06:50:19;4.70;;;2.80;;
5351;SDS011;2698;51.454;6.736;2023-04-03T06:52:46;6.30;;;3.07;;
5351;SDS011;2698;51.454;6.736;2023-04-03T06:55:13;5.50;;;3.07;;
5351;SDS011;2698;51.454;6.736;2023-04-03T06:57:40;8.10;;;3.30;;
5351;SDS011;2698;51.454;6.736;2023-04-03T07:00:10;11.53;;;3.00;;
5351;SDS011;2698;51.454;6.736;2023-04-03T07:02:38;8.60;;;2.90;;
5351;SDS011;2698;51.454;6.736;2023-04-03T07:05:06;5.23;;;2.87;;
5351;SDS011;2698;51.454;6.736;2023-04-03T07:07:33;5.70;;;2.97;;
5351;SDS011;2698;51.454;6.736;2023-04-03T07:10:01;12.87;;;4.27;;
5351;SDS011;2698;51.454;6.736;2023-04-03T07:12:28;8.80;;;2.87;;
5351;SDS011;2698;51.454;6.736;2023-04-03T07:14:55;10.23;;;3.40;;
5351;SDS011;2698;51.454;6.736;2023-04-03T07:17:23;15.37;;;3.03;;
5351;SDS011;2698;51.454;6.736;2023-04-03T07:19:51;12.60;;;3.40;;
5351;SDS011;2698;51.454;6.736;2023-04-03T07:22:19;14.40;;;3.23;;
5351;SDS011;2698;51.454;6.736;2023-04-03T07:24:46;7.67;;;3.27;;
5351;SDS011;2698;51.454;6.736;2023-04-03T07:27:13;8.63;;;4.03;;
5351;SDS011;2698;51.454;6.736;2023-04-03T07:29:40;3.27;;;2.33;;
5351;SDS011;2698;51.454;6.736;2023-04-03T07:32:07;9.37;;;3.57;;
5351;SDS011;2698;51.454;6.736;2023-04-03T07:34:36;8.13;;;3.80;;
5351;SDS011;2698;51.454;6.736;2023-04-03T07:37:04;10.17;;;2.77;;
5351;SDS011;2698;51.454;6.736;2023-04-03T07:39:31;7.93;;;2.87;;
5351;SDS011;2698;51.454;6.736;2023-04-03T07:41:58;5.40;;;3.17;;
5351;SDS011;2698;51.454;6.736;2023-04-03T07:44:25;8.63;;;3.10;;
5351;SDS011;2698;51.454;6.736;2023-04-03T07:46:52;7.17;;;3.50;;
5351;SDS011;2698;51.454;6.736;2023-04-03T07:49:21;10.20;;;3.10;;
5351;SDS011;2698;51.454;6.736;2023-04-03T07:51:50;9.53;;;2.97;;
5351;SDS011;2698;51.454;6.736;2023-04-03T07:54:18;8.47;;;2.87;;
5351;SDS011;2698;51.454;6.736;2023-04-03T07:56:45;10.00;;;2.80;;
5351;SDS011;2698;51.454;6.736;2023-04-03T07:59:12;7.00;;;3.50;;
5351;SDS011;2698;51.454;6.736;2023-04-03T08:01:39;12.43;;;3.47;;
5351;SDS011;2698;51.454;6.736;2023-04-03T08:04:06;6.93;;;2.67;;
5351;SDS011;2698;51.454;6.736;2023-04-03T08:06:33;10.27;;;2.93;;
5351;SDS011;2698;51.454;6.736;2023-04-03T08:09:03;4.30;;;3.13;;
5351;SDS011;2698;51.454;6.736;2023-04-03T08:11:30;11.27;;;2.63;;
5351;SDS011;2698;51.454;6.736;2023-04-03T08:13:57;3.20;;;2.13;;
5351;SDS011;2698;51.454;6.736;2023-04-03T08:16:25;4.73;;;2.53;;
5351;SDS011;2698;51.454;6.736;2023-04-03T08:18:52;8.20;;;2.57;;
5351;SDS011;2698;51.454;6.736;2023-04-03T08:21:20;15.43;;;2.63;;
5351;SDS011;2698;51.454;6.736;2023-04-03T08:23:47;3.73;;;2.60;;
5351;SDS011;2698;51.454;6.736;2023-04-03T08:26:17;10.63;;;2.97;;
5351;SDS011;2698;51.454;6.736;2023-04-03T08:28:45;9.10;;;3.20;;
5351;SDS011;2698;51.454;6.736;2023-04-03T08:31:13;8.10;;;2.93;;
5351;SDS011;2698;51.454;6.736;2023-04-03T08:33:40;8.00;;;2.40;;
5351;SDS011;2698;51.454;6.736;2023-04-03T08:36:14;6.40;;;2.90;;
5351;SDS011;2698;51.454;6.736;2023-04-03T08:38:42;3.47;;;2.80;;
5351;SDS011;2698;51.454;6.736;2023-04-03T08:41:11;2.37;;;2.17;;
5351;SDS011;2698;51.454;6.736;2023-04-03T08:43:43;15.27;;;2.43;;
5351;SDS011;2698;51.454;6.736;2023-04-03T08:46:14;8.47;;;2.10;;
5351;SDS011;2698;51.454;6.736;2023-04-03T08:48:43;5.90;;;2.37;;
5351;SDS011;2698;51.454;6.736;2023-04-03T08:51:11;5.10;;;2.07;;
5351;SDS011;2698;51.454;6.736;2023-04-03T08:53:41;9.17;;;2.90;;
5351;SDS011;2698;51.454;6.736;2023-04-03T08:56:09;9.53;;;3.00;;
5351;SDS011;2698;51.454;6.736;2023-04-03T08:58:42;10.83;;;3.00;;
5351;SDS011;2698;51.454;6.736;2023-04-03T09:01:14;7.60;;;2.77;;
5351;SDS011;2698;51.454;6.736;2023-04-03T09:03:43;7.40;;;2.37;;
5351;SDS011;2698;51.454;6.736;2023-04-03T09:06:11;8.30;;;1.83;;
5351;SDS011;2698;51.454;6.736;2023-04-03T09:08:41;9.67;;;2.50;;
5351;SDS011;2698;51.454;6.736;2023-04-03T09:11:12;1.53;;;1.30;;
5351;SDS011;2698;51.454;6.736;2023-04-03T09:13:46;20.30;;;1.77;;
5351;SDS011;2698;51.454;6.736;2023-04-03T09:16:17;12.33;;;1.70;;
5351;SDS011;2698;51.454;6.736;2023-04-03T09:18:48;4.67;;;1.93;;
5351;SDS011;2698;51.454;6.736;2023-04-03T09:21:20;2.70;;;1.47;;
5351;SDS011;2698;51.454;6.736;2023-04-03T09:23:50;10.53;;;1.93;;
5351;SDS011;2698;51.454;6.736;2023-04-03T09:26:18;6.63;;;1.67;;
5351;SDS011;2698;51.454;6.736;2023-04-03T09:28:49;1.40;;;1.30;;
5351;SDS011;2698;51.454;6.736;2023-04-03T09:31:19;3.97;;;1.53;;
5351;SDS011;2698;51.454;6.736;2023-04-03T09:33:47;5.70;;;1.50;;
5351;SDS011;2698;51.454;6.736;2023-04-03T09:39:02;9.13;;;1.87;;
5351;SDS011;2698;51.454;6.736;2023-04-03T09:41:29;5.63;;;1.97;;
5351;SDS011;2698;51.454;6.736;2023-04-03T09:43:59;2.50;;;1.40;;
5351;SDS011;2698;51.454;6.736;2023-04-03T09:46:28;2.50;;;1.70;;
5351;SDS011;2698;51.454;6.736;2023-04-03T09:48:56;3.50;;;1.50;;
5351;SDS011;2698;51.454;6.736;2023-04-03T09:51:25;56.43;;;2.50;;
5351;SDS011;2698;51.454;6.736;2023-04-03T09:53:53;7.27;;;1.80;;
5351;SDS011;2698;51.454;6.736;2023-04-03T09:56:22;4.50;;;2.17;;
5351;SDS011;2698;51.454;6.736;2023-04-03T09:58:51;6.10;;;2.00;;
5351;SDS011;2698;51.454;6.736;2023-04-03T10:01:28;2.53;;;1.53;;
5351;SDS011;2698;51.454;6.736;2023-04-03T10:04:03;3.87;;;1.30;;
5351;SDS011;2698;51.454;6.736;2023-04-03T10:06:30;4.23;;;1.47;;
5351;SDS011;2698;51.454;6.736;2023-04-03T10:08:58;5.03;;;1.47;;
5351;SDS011;2698;51.454;6.736;2023-04-03T10:11:29;3.23;;;2.00;;
5351;SDS011;2698;51.454;6.736;2023-04-03T10:13:57;4.97;;;1.40;;
5351;SDS011;2698;51.454;6.736;2023-04-03T10:16:28;8.23;;;2.30;;
5351;SDS011;2698;51.454;6.736;2023-04-03T10:19:01;3.83;;;1.70;;
5351;SDS011;2698;51.454;6.736;2023-04-03T10:21:32;7.23;;;1.27;;
5351;SDS011;2698;51.454;6.736;2023-04-03T10:24:05;7.40;;;1.50;;
5351;SDS011;2698;51.454;6.736;2023-04-03T10:26:38;14.03;;;2.50;;
5351;SDS011;2698;51.454;6.736;2023-04-03T10:29:09;4.80;;;0.97;;
5351;SDS011;2698;51.454;6.736;2023-04-03T10:31:41;3.20;;;1.30;;
5351;SDS011;2698;51.454;6.736;2023-04-03T10:34:13;3.17;;;1.77;;
5351;SDS011;2698;51.454;6.736;2023-04-03T10:36:45;6.57;;;1.53;;
5351;SDS011;2698;51.454;6.736;2023-04-03T10:39:17;3.67;;;1.50;;
5351;SDS011;2698;51.454;6.736;2023-04-03T10:41:51;1.43;;;1.10;;
5351;SDS011;2698;51.454;6.736;2023-04-03T10:44:20;1.30;;;1.20;;
5351;SDS011;2698;51.454;6.736;2023-04-03T10:46:56;3.40;;;1.20;;
5351;SDS011;2698;51.454;6.736;2023-04-03T10:49:27;5.40;;;1.10;;
5351;SDS011;2698;51.454;6.736;2023-04-03T10:51:59;20.53;;;2.10;;
5351;SDS011;2698;51.454;6.736;2023-04-03T10:54:30;2.23;;;1.30;;
5351;SDS011;2698;51.454;6.736;2023-04-03T10:57:02;7.03;;;1.60;;
5351;SDS011;2698;51.454;6.736;2023-04-03T10:59:31;3.20;;;1.53;;
5351;SDS011;2698;51.454;6.736;2023-04-03T11:02:01;6.27;;;2.10;;
5351;SDS011;2698;51.454;6.736;2023-04-03T11:04:31;3.40;;;1.50;;
5351;SDS011;2698;51.454;6.736;2023-04-03T11:07:01;9.47;;;1.77;;
5351;SDS011;2698;51.454;6.736;2023-04-03T11:09:30;5.63;;;1.87;;
5351;SDS011;2698;51.454;6.736;2023-04-03T11:12:00;13.30;;;1.60;;
5351;SDS011;2698;51.454;6.736;2023-04-03T11:14:29;6.10;;;1.30;;
5351;SDS011;2698;51.454;6.736;2023-04-03T11:17:04;6.10;;;2.00;;
5351;SDS011;2698;51.454;6.736;2023-04-03T11:19:34;2.80;;;1.30;;
5351;SDS011;2698;51.454;6.736;2023-04-03T11:22:03;4.90;;;1.70;;
5351;SDS011;2698;51.454;6.736;2023-04-03T11:24:32;4.43;;;1.80;;
5351;SDS011;2698;51.454;6.736;2023-04-03T11:27:00;4.50;;;1.57;;
5351;SDS011;2698;51.454;6.736;2023-04-03T11:29:29;3.20;;;1.70;;
5351;SDS011;2698;51.454;6.736;2023-04-03T11:32:04;5.37;;;1.90;;
5351;SDS011;2698;51.454;6.736;2023-04-03T11:34:36;6.23;;;1.57;;
5351;SDS011;2698;51.454;6.736;2023-04-03T11:37:05;6.27;;;1.43;;
5351;SDS011;2698;51.454;6.736;2023-04-03T11:39:33;1.87;;;1.60;;
5351;SDS011;2698;51.454;6.736;2023-04-03T11:42:15;7.37;;;2.37;;
5351;SDS011;2698;51.454;6.736;2023-04-03T11:44:43;8.70;;;1.67;;
5351;SDS011;2698;51.454;6.736;2023-04-03T11:47:12;17.27;;;2.00;;
5351;SDS011;2698;51.454;6.736;2023-04-03T11:49:59;3.83;;;1.87;;
5351;SDS011;2698;51.454;6.736;2023-04-03T11:52:54;4.63;;;1.70;;
5351;SDS011;2698;51.454;6.736;2023-04-03T11:58:11;7.40;;;1.73;;
5351;SDS011;2698;51.454;6.736;2023-04-03T12:00:49;2.53;;;1.60;;
5351;SDS011;2698;51.454;6.736;2023-04-03T12:08:49;1.50;;;1.40;;
5351;SDS011;2698;51.454;6.736;2023-04-03T12:11:21;3.03;;;1.43;;
5351;SDS011;2698;51.454;6.736;2023-04-03T12:14:04;7.27;;;2.37;;
5351;SDS011;2698;51.454;6.736;2023-04-03T12:16:32;10.77;;;2.40;;
5351;SDS011;2698;51.454;6.736;2023-04-03T12:19:00;5.47;;;2.33;;
5351;SDS011;2698;51.454;6.736;2023-04-03T12:24:25;6.73;;;2.40;;
5351;SDS011;2698;51.454;6.736;2023-04-03T12:27:01;1.90;;;1.20;;
5351;SDS011;2698;51.454;6.736;2023-04-03T12:29:33;4.43;;;1.80;;
5351;SDS011;2698;51.454;6.736;2023-04-03T12:32:05;4.47;;;1.37;;
5351;SDS011;2698;51.454;6.736;2023-04-03T12:34:49;5.83;;;1.30;;
5351;SDS011;2698;51.454;6.736;2023-04-03T12:37:21;3.87;;;1.90;;
5351;SDS011;2698;51.454;6.736;2023-04-03T12:39:54;7.20;;;2.70;;
5351;SDS011;2698;51.454;6.736;2023-04-03T12:42:25;1.50;;;1.40;;
5351;SDS011;2698;51.454;6.736;2023-04-03T12:44:55;4.40;;;1.70;;
5351;SDS011;2698;51.454;6.736;2023-04-03T12:47:26;4.43;;;1.70;;
5351;SDS011;2698;51.454;6.736;2023-04-03T12:49:54;11.50;;;2.60;;
5351;SDS011;2698;51.454;6.736;2023-04-03T12:52:27;3.03;;;1.47;;
5351;SDS011;2698;51.454;6.736;2023-04-03T12:54:58;12.30;;;1.67;;
5351;SDS011;2698;51.454;6.736;2023-04-03T12:57:29;2.50;;;2.00;;
5351;SDS011;2698;51.454;6.736;2023-04-03T12:59:57;12.87;;;2.37;;
5351;SDS011;2698;51.454;6.736;2023-04-03T13:02:25;2.00;;;1.40;;
5351;SDS011;2698;51.454;6.736;2023-04-03T13:04:53;3.33;;;1.50;;
5351;SDS011;2698;51.454;6.736;2023-04-03T13:07:23;6.73;;;1.70;;
5351;SDS011;2698;51.454;6.736;2023-04-03T13:09:57;4.70;;;1.70;;
5351;SDS011;2698;51.454;6.736;2023-04-03T13:12:25;9.80;;;2.00;;
5351;SDS011;2698;51.454;6.736;2023-04-03T13:14:53;3.93;;;1.80;;
5351;SDS011;2698;51.454;6.736;2023-04-03T13:17:20;4.43;;;1.90;;
5351;SDS011;2698;51.454;6.736;2023-04-03T13:19:48;13.03;;;2.00;;
5351;SDS011;2698;51.454;6.736;2023-04-03T13:22:19;7.73;;;2.57;;
5351;SDS011;2698;51.454;6.736;2023-04-03T13:24:51;4.70;;;2.37;;
5351;SDS011;2698;51.454;6.736;2023-04-03T13:27:20;4.23;;;1.60;;
5351;SDS011;2698;51.454;6.736;2023-04-03T13:29:49;2.37;;;1.50;;
5351;SDS011;2698;51.454;6.736;2023-04-03T13:32:18;3.60;;;1.53;;
5351;SDS011;2698;51.454;6.736;2023-04-03T13:34:46;7.37;;;1.80;;
5351;SDS011;2698;51.454;6.736;2023-04-03T13:37:23;3.40;;;1.70;;
5351;SDS011;2698;51.454;6.736;2023-04-03T13:39:57;17.13;;;1.90;;
5351;SDS011;2698;51.454;6.736;2023-04-03T13:42:27;4.93;;;2.03;;
5351;SDS011;2698;51.454;6.736;2023-04-03T13:45:09;8.57;;;2.73;;
5351;SDS011;2698;51.454;6.736;2023-04-03T13:47:38;5.30;;;2.43;;
5351;SDS011;2698;51.454;6.736;2023-04-03T13:50:12;3.50;;;1.80;;
5351;SDS011;2698;51.454;6.736;2023-04-03T13:52:40;2.90;;;2.00;;
5351;SDS011;2698;51.454;6.736;2023-04-03T13:55:15;3.43;;;2.50;;
5351;SDS011;2698;51.454;6.736;2023-04-03T13:57:55;2.67;;;2.07;;
5351;SDS011;2698;51.454;6.736;2023-04-03T14:00:32;5.27;;;2.20;;
5351;SDS011;2698;51.454;6.736;2023-04-03T14:03:00;3.07;;;1.43;;
5351;SDS011;2698;51.454;6.736;2023-04-03T14:05:27;9.10;;;2.50;;
5351;SDS011;2698;51.454;6.736;2023-04-03T14:07:54;5.37;;;1.80;;
5351;SDS011;2698;51.454;6.736;2023-04-03T14:10:21;4.10;;;1.37;;
5351;SDS011;2698;51.454;6.736;2023-04-03T14:12:49;1.40;;;1.30;;
5351;SDS011;2698;51.454;6.736;2023-04-03T14:15:18;1.50;;;1.40;;
5351;SDS011;2698;51.454;6.736;2023-04-03T14:17:46;2.47;;;2.03;;
5351;SDS011;2698;51.454;6.736;2023-04-03T14:20:14;4.27;;;1.50;;
5351;SDS011;2698;51.454;6.736;2023-04-03T14:22:42;4.80;;;2.10;;
5351;SDS011;2698;51.454;6.736;2023-04-03T14:25:09;2.17;;;1.63;;
5351;SDS011;2698;51.454;6.736;2023-04-03T14:27:37;2.40;;;1.30;;
5351;SDS011;2698;51.454;6.736;2023-04-03T14:30:06;4.10;;;1.27;;
5351;SDS011;2698;51.454;6.736;2023-04-03T14:32:35;9.30;;;2.00;;
5351;SDS011;2698;51.454;6.736;2023-04-03T14:35:02;4.93;;;1.50;;
5351;SDS011;2698;51.454;6.736;2023-04-03T14:37:29;3.13;;;1.90;;
5351;SDS011;2698;51.454;6.736;2023-04-03T14:39:58;2.53;;;1.23;;
5351;SDS011;2698;51.454;6.736;2023-04-03T14:42:26;12.13;;;2.07;;
5351;SDS011;2698;51.454;6.736;2023-04-03T14:44:53;4.50;;;1.60;;
5351;SDS011;2698;51.454;6.736;2023-04-03T14:47:21;2.53;;;1.30;;
5351;SDS011;2698;51.454;6.736;2023-04-03T14:49:51;13.57;;;2.03;;
5351;SDS011;2698;51.454;6.736;2023-04-03T14:52:19;4.40;;;1.67;;
5351;SDS011;2698;51.454;6.736;2023-04-03T14:54:46;3.93;;;1.87;;
5351;SDS011;2698;51.454;6.736;2023-04-03T14:57:14;1.93;;;1.83;;
5351;SDS011;2698;51.454;6.736;2023-04-03T14:59:42;9.23;;;2.17;;
5351;SDS011;2698;51.454;6.736;2023-04-03T15:02:11;3.50;;;1.67;;
5351;SDS011;2698;51.454;6.736;2023-04-03T15:04:47;6.63;;;1.87;;
5351;SDS011;2698;51.454;6.736;2023-04-03T15:07:16;2.60;;;1.83;;
5351;SDS011;2698;51.454;6.736;2023-04-03T15:09:43;3.00;;;1.30;;
5351;SDS011;2698;51.454;6.736;2023-04-03T15:12:10;3.50;;;2.03;;
5351;SDS011;2698;51.454;6.736;2023-04-03T15:14:37;1.87;;;1.53;;
5351;SDS011;2698;51.454;6.736;2023-04-03T15:17:05;11.23;;;2.40;;
5351;SDS011;2698;51.454;6.736;2023-04-03T15:19:32;4.83;;;2.30;;
5351;SDS011;2698;51.454;6.736;2023-04-03T15:22:02;3.40;;;2.10;;
5351;SDS011;2698;51.454;6.736;2023-04-03T15:24:31;5.00;;;2.10;;
5351;SDS011;2698;51.454;6.736;2023-04-03T15:26:58;4.53;;;2.30;;
5351;SDS011;2698;51.454;6.736;2023-04-03T15:29:26;5.97;;;1.80;;
5351;SDS011;2698;51.454;6.736;2023-04-03T15:31:53;3.70;;;1.60;;
5351;SDS011;2698;51.454;6.736;2023-04-03T15:34:21;5.83;;;1.93;;